Time;durP1;ratioP1;P1;durP2;ratioP2;P2;SDS_P1;SDS_P2;PMS_P1;PMS_P2;Temp;Humidity;BMP_temperature;BMP_pressure;BME280_temperature;BME280_humidity;BME280_pressure;Samples;Min_cycle;Max_cycle;Signal;HPM_P1;HPM_P2
2023/04/07 00:02:25;;;;;;;14.97;7.90;;;3.30;99.90;;;;;;4994301;28;20390;-87
2023/04/07 00:04:51;;;;;;;21.10;11.33;;;3.30;99.90;;;;;;5012382;28;20449;-89
2023/04/07 00:07:18;;;;;;;18.67;10.70;;;3.30;99.90;;;;;;5012719;28;20140;-88
2023/04/07 00:09:44;;;;;;;15.13;9.10;;;3.30;99.90;;;;;;4995167;28;20420;-88
2023/04/07 00:12:10;;;;;;;14.33;9.43;;;3.30;99.90;;;;;;5016025;28;20108;-87
2023/04/07 00:14:36;;;;;;;13.70;9.37;;;3.30;99.90;;;;;;5015923;28;20457;-88
2023/04/07 00:17:02;;;;;;;12.97;8.23;;;3.30;99.90;;;;;;5015815;28;20097;-88
2023/04/07 00:19:28;;;;;;;14.13;7.63;;;3.30;99.90;;;;;;5015543;28;20026;-88
2023/04/07 00:21:54;;;;;;;10.83;7.30;;;3.30;99.90;;;;;;5015685;28;20049;-88
2023/04/07 00:24:20;;;;;;;11.43;7.47;;;3.30;99.90;;;;;;5015476;28;20432;-88
2023/04/07 00:26:46;;;;;;;12.27;6.90;;;3.30;99.90;;;;;;5015750;28;20071;-85
2023/04/07 00:29:12;;;;;;;10.13;7.33;;;3.30;99.90;;;;;;5015698;28;20425;-89
2023/04/07 00:31:38;;;;;;;12.47;7.33;;;3.30;99.90;;;;;;5013782;28;20049;-89
2023/04/07 00:34:04;;;;;;;12.73;7.40;;;3.40;99.90;;;;;;5015179;28;20034;-89
2023/04/07 00:36:31;;;;;;;13.23;7.67;;;3.40;99.90;;;;;;5015961;28;20436;-89
2023/04/07 00:38:56;;;;;;;11.40;7.70;;;3.40;99.90;;;;;;5015536;28;20510;-88
2023/04/07 00:41:22;;;;;;;13.80;7.27;;;3.40;99.90;;;;;;5015485;28;20030;-88
2023/04/07 00:43:50;;;;;;;12.00;7.77;;;3.40;99.90;;;;;;5015182;28;20117;-89
2023/04/07 00:46:17;;;;;;;14.23;8.63;;;3.50;99.90;;;;;;5015269;28;20530;-89
2023/04/07 00:48:44;;;;;;;16.40;9.00;;;3.50;99.90;;;;;;5014875;28;20433;-89
2023/04/07 00:51:10;;;;;;;15.33;9.40;;;3.50;99.90;;;;;;5015127;28;20487;-89
2023/04/07 00:53:36;;;;;;;14.30;9.33;;;3.40;99.90;;;;;;4997315;28;20033;-89
2023/04/07 00:56:02;;;;;;;16.10;10.17;;;3.50;99.90;;;;;;5015099;28;20417;-88
2023/04/07 00:58:28;;;;;;;14.70;10.43;;;3.40;99.90;;;;;;4996800;28;20113;-89
2023/04/07 01:01:08;;;;;;;21.43;12.30;;;3.40;99.90;;;;;;5015451;28;20456;-89
2023/04/07 01:03:41;;;;;;;25.10;14.40;;;3.40;99.90;;;;;;4997716;28;20376;-89
2023/04/07 01:06:07;;;;;;;17.93;11.30;;;3.40;99.90;;;;;;5014500;28;20536;-88
2023/04/07 01:09:00;;;;;;;12.97;8.20;;;3.40;99.90;;;;;;5013115;28;20350;-88
2023/04/07 01:12:07;;;;;;;16.00;8.47;;;3.50;99.90;;;;;;5014577;28;20449;-87
2023/04/07 01:14:39;;;;;;;10.07;7.20;;;3.40;99.90;;;;;;4977793;28;20502;-89
2023/04/07 01:17:09;;;;;;;10.93;7.57;;;3.50;99.90;;;;;;5014833;28;20433;-89
2023/04/07 01:19:50;;;;;;;12.57;7.50;;;3.50;99.90;;;;;;5014538;28;20472;-87
2023/04/07 01:22:24;;;;;;;13.30;7.87;;;3.50;99.90;;;;;;4996406;28;20431;-88
2023/04/07 01:25:12;;;;;;;10.80;6.97;;;3.50;99.90;;;;;;5014056;28;20364;-88
2023/04/07 01:27:57;;;;;;;10.23;7.17;;;3.50;99.90;;;;;;5014133;28;20447;-88
2023/04/07 01:30:28;;;;;;;10.88;6.38;;;3.50;99.90;;;;;;4995906;28;20045;-89
2023/04/07 01:32:57;;;;;;;10.67;6.97;;;3.50;99.90;;;;;;5012363;28;20428;-88
2023/04/07 01:35:24;;;;;;;12.10;7.17;;;3.50;99.90;;;;;;5013680;28;20445;-88
2023/04/07 01:37:51;;;;;;;11.70;7.17;;;3.60;99.90;;;;;;5012573;28;20113;-88
2023/04/07 01:40:21;;;;;;;12.17;7.03;;;3.50;99.90;;;;;;5014381;28;20040;-89
2023/04/07 01:42:51;;;;;;;11.57;6.50;;;3.60;99.90;;;;;;5014288;28;20779;-89
2023/04/07 01:45:18;;;;;;;12.40;7.43;;;3.70;99.90;;;;;;5013881;28;20029;-88
2023/04/07 01:47:45;;;;;;;9.70;5.87;;;3.70;99.90;;;;;;4995671;28;20409;-88
2023/04/07 01:50:15;;;;;;;9.53;6.60;;;3.70;99.90;;;;;;5013665;28;20440;-88
2023/04/07 01:52:43;;;;;;;10.07;6.73;;;3.80;99.90;;;;;;5013591;28;20061;-88
2023/04/07 01:55:10;;;;;;;14.30;6.57;;;3.70;99.90;;;;;;4995730;28;20420;-89
2023/04/07 01:57:37;;;;;;;11.57;5.70;;;3.80;99.90;;;;;;4995615;28;20523;-89
2023/04/07 02:00:05;;;;;;;10.73;6.00;;;3.80;99.90;;;;;;4996168;28;20373;-89
2023/04/07 02:02:35;;;;;;;10.70;6.00;;;3.80;99.90;;;;;;4995817;28;20491;-88
2023/04/07 02:05:07;;;;;;;10.47;5.83;;;3.80;99.90;;;;;;5013234;28;20341;-86
2023/04/07 02:07:51;;;;;;;12.77;5.67;;;3.80;99.90;;;;;;5013708;28;20338;-88
2023/04/07 02:10:20;;;;;;;7.53;5.00;;;3.90;99.90;;;;;;5013433;28;20453;-89
2023/04/07 02:12:47;;;;;;;7.37;5.00;;;3.90;99.90;;;;;;5013510;28;20377;-89
2023/04/07 02:15:15;;;;;;;7.97;4.57;;;3.90;99.90;;;;;;5013762;28;20086;-89
2023/04/07 02:17:44;;;;;;;8.13;4.63;;;4.00;99.90;;;;;;5013511;28;20424;-88
2023/04/07 02:20:14;;;;;;;8.60;4.97;;;4.00;99.90;;;;;;5013368;28;20369;-88
2023/04/07 02:22:44;;;;;;;7.40;4.50;;;4.10;99.90;;;;;;5011677;28;20425;-88
2023/04/07 02:25:26;;;;;;;14.40;5.60;;;4.10;99.90;;;;;;5013272;28;20512;-88
2023/04/07 02:27:59;;;;;;;6.53;4.50;;;4.20;99.90;;;;;;5013576;28;20484;-88
2023/04/07 02:30:26;;;;;;;6.97;4.73;;;4.30;99.90;;;;;;5011534;28;20435;-89
2023/04/07 02:32:53;;;;;;;7.07;4.67;;;4.30;99.90;;;;;;5012718;28;20037;-89
2023/04/07 02:35:20;;;;;;;5.30;4.10;;;4.30;99.90;;;;;;4995855;28;20544;-88
2023/04/07 02:37:50;;;;;;;6.57;4.20;;;4.40;99.90;;;;;;5013655;28;20448;-88
2023/04/07 02:40:18;;;;;;;7.23;4.90;;;4.50;99.90;;;;;;5013601;28;20048;-88
2023/04/07 02:42:45;;;;;;;7.13;4.53;;;4.50;99.90;;;;;;5013957;28;20022;-88
2023/04/07 02:45:13;;;;;;;7.60;4.60;;;4.60;99.90;;;;;;4997059;28;20480;-88
2023/04/07 02:47:40;;;;;;;6.07;4.10;;;4.70;99.90;;;;;;4996219;28;20380;-89
2023/04/07 02:50:08;;;;;;;7.17;4.60;;;4.70;99.90;;;;;;5014442;28;20463;-89
2023/04/07 02:52:40;;;;;;;10.03;5.33;;;4.70;99.90;;;;;;4997152;28;20049;-90
2023/04/07 02:58:31;;;;;;;6.93;4.63;;;4.70;99.90;;;;;;5013562;28;20052;-88
2023/04/07 03:00:57;;;;;;;7.53;4.80;;;4.70;99.90;;;;;;5013758;28;20467;-89
2023/04/07 03:03:23;;;;;;;7.67;4.70;;;4.60;99.90;;;;;;5013372;28;20095;-89
2023/04/07 03:05:49;;;;;;;6.80;4.93;;;4.60;99.90;;;;;;5012812;28;20046;-88
2023/04/07 03:08:15;;;;;;;9.47;5.07;;;4.60;99.90;;;;;;4995082;28;20486;-89
2023/04/07 03:10:42;;;;;;;7.23;4.73;;;4.60;99.90;;;;;;5013382;28;20026;-89
2023/04/07 03:13:08;;;;;;;6.70;4.50;;;4.60;99.90;;;;;;5012940;28;20406;-88
2023/04/07 03:15:34;;;;;;;8.73;5.30;;;4.60;99.90;;;;;;5013319;28;20421;-89
2023/04/07 03:18:00;;;;;;;8.40;4.50;;;4.60;99.90;;;;;;5011557;28;20030;-89
2023/04/07 03:20:26;;;;;;;6.80;4.70;;;4.60;99.90;;;;;;5013056;28;20056;-89
2023/04/07 03:22:52;;;;;;;6.90;4.47;;;4.60;99.90;;;;;;5013279;28;20022;-88
2023/04/07 03:25:21;;;;;;;7.83;4.60;;;4.60;99.90;;;;;;5013005;28;20049;-88
2023/04/07 03:27:52;;;;;;;6.17;4.77;;;4.60;99.90;;;;;;5013385;28;20447;-87
2023/04/07 03:30:22;;;;;;;5.30;4.47;;;4.60;99.90;;;;;;5013019;28;20429;-89
2023/04/07 03:32:51;;;;;;;8.10;4.47;;;4.60;99.90;;;;;;5012941;28;20560;-88
2023/04/07 03:35:20;;;;;;;8.43;4.60;;;4.50;99.90;;;;;;5012727;28;20460;-88
2023/04/07 03:37:46;;;;;;;7.63;4.67;;;4.50;99.90;;;;;;5010797;28;20510;-88
2023/04/07 03:40:12;;;;;;;8.13;5.13;;;4.50;99.90;;;;;;5012801;28;20057;-88
2023/04/07 03:42:40;;;;;;;10.13;5.40;;;4.50;99.90;;;;;;5012494;28;20433;-88
2023/04/07 03:45:16;;;;;;;6.13;4.03;;;4.50;99.90;;;;;;5015110;28;20449;-88
2023/04/07 03:47:49;;;;;;;7.20;5.10;;;4.60;99.90;;;;;;5014948;28;20372;-88
2023/04/07 03:50:18;;;;;;;7.57;5.03;;;4.50;99.90;;;;;;4998495;28;20449;-87
2023/04/07 03:52:46;;;;;;;8.33;5.00;;;4.50;99.90;;;;;;5015819;28;20448;-87
2023/04/07 03:55:12;;;;;;;6.40;5.23;;;4.50;99.90;;;;;;5016090;28;20437;-88
2023/04/07 03:57:38;;;;;;;6.77;5.03;;;4.50;99.90;;;;;;5016168;28;20441;-88
2023/04/07 04:00:04;;;;;;;7.90;5.23;;;4.50;99.90;;;;;;5016212;28;20106;-89
2023/04/07 04:02:31;;;;;;;7.03;5.07;;;4.50;99.90;;;;;;5015975;28;20454;-88
2023/04/07 04:04:57;;;;;;;6.63;5.10;;;4.50;99.90;;;;;;5015778;28;20468;-88
2023/04/07 04:07:25;;;;;;;7.17;5.00;;;4.50;99.90;;;;;;5015708;28;20314;-88
2023/04/07 04:09:51;;;;;;;7.93;5.07;;;4.50;99.90;;;;;;5014424;28;20329;-88
2023/04/07 04:12:17;;;;;;;6.27;4.70;;;4.50;99.90;;;;;;5016000;28;20038;-88
2023/04/07 04:14:42;;;;;;;6.93;5.33;;;4.50;99.90;;;;;;5015595;28;20033;-88
2023/04/07 04:17:08;;;;;;;7.50;5.00;;;4.50;99.90;;;;;;5015684;28;20064;-88
2023/04/07 04:19:34;;;;;;;7.77;5.40;;;4.50;99.90;;;;;;5015419;28;20061;-87
2023/04/07 04:22:00;;;;;;;9.80;5.77;;;4.50;99.90;;;;;;5015197;28;20022;-88
2023/04/07 04:24:26;;;;;;;8.63;5.50;;;4.50;99.90;;;;;;5015700;28;20033;-88
2023/04/07 04:26:52;;;;;;;9.50;6.10;;;4.50;99.90;;;;;;5015609;28;20133;-88
2023/04/07 04:29:18;;;;;;;8.50;5.83;;;4.50;99.90;;;;;;5015716;28;20018;-88
2023/04/07 04:31:44;;;;;;;9.73;5.80;;;4.50;99.90;;;;;;5015162;28;20426;-88
2023/04/07 04:34:10;;;;;;;9.00;6.20;;;4.40;99.90;;;;;;5015056;28;20132;-88
2023/04/07 04:36:36;;;;;;;7.97;5.67;;;4.40;99.90;;;;;;5015269;28;20440;-88
2023/04/07 04:39:02;;;;;;;9.10;6.47;;;4.40;99.90;;;;;;5014795;28;20080;-87
2023/04/07 04:41:27;;;;;;;8.87;6.60;;;4.30;99.90;;;;;;5014717;28;20036;-88
2023/04/07 04:43:53;;;;;;;9.83;6.63;;;4.30;99.90;;;;;;5014558;28;20045;-88
2023/04/07 04:46:19;;;;;;;10.53;6.80;;;4.30;99.90;;;;;;5013043;28;20026;-87
2023/04/07 04:48:45;;;;;;;10.30;7.17;;;4.20;99.90;;;;;;5014629;28;20022;-87
2023/04/07 04:51:11;;;;;;;11.60;7.03;;;4.20;99.90;;;;;;5014364;28;20095;-88
2023/04/07 04:53:37;;;;;;;11.50;7.50;;;4.20;99.90;;;;;;5014661;28;20453;-87
2023/04/07 04:56:04;;;;;;;8.63;6.77;;;4.20;99.90;;;;;;5014561;28;20479;-93
2023/04/07 04:58:30;;;;;;;10.27;7.30;;;4.10;99.90;;;;;;5003064;28;20453;-85
2023/04/07 05:00:57;;;;;;;13.10;8.27;;;4.10;99.90;;;;;;5022895;28;20065;-96
2023/04/07 05:03:25;;;;;;;11.87;8.53;;;4.00;99.90;;;;;;5023523;28;20491;-96
2023/04/07 05:05:51;;;;;;;12.43;7.77;;;4.00;99.90;;;;;;5023279;28;20061;-96
2023/04/07 05:08:17;;;;;;;12.77;7.63;;;4.00;99.90;;;;;;5006950;28;20053;-96
2023/04/07 05:10:42;;;;;;;15.20;7.87;;;4.00;99.90;;;;;;5023355;28;20014;-96
2023/04/07 05:13:09;;;;;;;13.77;8.27;;;4.00;99.90;;;;;;5004611;28;20026;-96
2023/04/07 05:15:35;;;;;;;11.77;7.47;;;4.00;99.90;;;;;;5005455;28;20475;-95
2023/04/07 05:18:02;;;;;;;11.80;7.90;;;4.00;99.90;;;;;;5003476;28;20359;-95
2023/04/07 05:20:28;;;;;;;11.00;8.03;;;4.00;99.90;;;;;;5004003;28;20033;-96
2023/04/07 05:22:54;;;;;;;11.63;8.43;;;4.00;99.90;;;;;;5021904;28;20113;-95
2023/04/07 05:25:25;;;;;;;13.57;8.37;;;4.00;99.90;;;;;;5005076;28;20028;-96
2023/04/07 05:30:28;;;;;;;13.00;8.07;;;4.10;99.90;;;;;;5003626;28;20029;-96
2023/04/07 05:33:03;;;;;;;11.27;7.93;;;4.10;99.90;;;;;;5004334;28;20045;-96
2023/04/07 05:35:35;;;;;;;11.90;8.85;;;4.10;99.90;;;;;;5021815;28;20026;-95
2023/04/07 05:38:02;;;;;;;12.50;8.20;;;4.20;99.90;;;;;;5006341;28;20053;-95
2023/04/07 05:40:31;;;;;;;13.10;8.53;;;4.10;99.90;;;;;;5022265;28;20041;-95
2023/04/07 05:42:57;;;;;;;12.60;8.57;;;4.20;99.90;;;;;;5020881;28;20025;-95
2023/04/07 05:45:23;;;;;;;12.10;7.70;;;4.30;99.90;;;;;;5003451;28;20360;-94
2023/04/07 05:47:49;;;;;;;11.80;8.20;;;4.30;99.90;;;;;;5020197;28;20022;-96
2023/04/07 05:50:32;;;;;;;11.93;8.57;;;4.30;99.90;;;;;;5003103;28;20473;-95
2023/04/07 05:52:59;;;;;;;11.80;8.47;;;4.30;99.90;;;;;;5018968;28;20026;-95
2023/04/07 05:55:30;;;;;;;11.33;8.50;;;4.40;99.90;;;;;;5003066;28;20030;-95
2023/04/07 05:57:57;;;;;;;11.67;7.97;;;4.40;99.90;;;;;;5001379;28;20519;-94
2023/04/07 06:00:29;;;;;;;11.63;7.73;;;4.50;99.90;;;;;;5018801;28;20028;-94
2023/04/07 06:02:55;;;;;;;11.77;8.37;;;4.60;99.90;;;;;;5020129;28;20067;-91
2023/04/07 06:05:33;;;;;;;11.47;8.37;;;4.60;99.90;;;;;;5017401;28;20137;-88
2023/04/07 06:08:00;;;;;;;10.93;8.27;;;4.60;99.90;;;;;;5014320;28;20449;-90
2023/04/07 06:10:28;;;;;;;12.73;8.87;;;4.70;99.90;;;;;;5016730;28;20444;-91
2023/04/07 06:12:55;;;;;;;11.33;7.97;;;4.70;99.90;;;;;;4996093;28;20431;-88
2023/04/07 06:15:21;;;;;;;12.13;7.53;;;4.70;99.90;;;;;;5013474;28;20460;-89
2023/04/07 06:17:48;;;;;;;11.03;7.77;;;4.80;99.90;;;;;;5018831;28;20085;-96
2023/04/07 06:20:21;;;;;;;13.33;7.77;;;4.80;99.90;;;;;;5018356;28;20439;-95
2023/04/07 06:22:51;;;;;;;13.47;9.77;;;4.80;99.90;;;;;;5002508;28;20034;-96
2023/04/07 06:25:22;;;;;;;15.93;12.47;;;4.90;99.90;;;;;;5002139;28;20029;-94
2023/04/07 06:27:50;;;;;;;12.50;8.00;;;4.90;99.90;;;;;;5000291;28;20024;-94
2023/04/07 06:30:40;;;;;;;10.30;7.77;;;5.00;99.90;;;;;;5000869;28;20473;-92
2023/04/07 06:33:03;;;;;;;12.20;9.00;;;5.10;99.90;;;;;;5015137;28;20038;-93
2023/04/07 06:35:29;;;;;;;10.23;7.90;;;5.10;99.90;;;;;;5021137;28;20049;-94
2023/04/07 06:37:55;;;;;;;11.87;8.13;;;5.10;99.90;;;;;;5003275;28;20132;-90
2023/04/07 06:40:21;;;;;;;10.93;8.00;;;5.10;99.90;;;;;;4998651;28;20514;-90
2023/04/07 06:42:47;;;;;;;10.73;8.30;;;5.20;99.90;;;;;;5016623;28;20034;-90
2023/04/07 06:45:14;;;;;;;12.07;8.63;;;5.30;99.90;;;;;;4998015;28;20059;-91
2023/04/07 06:47:40;;;;;;;10.03;7.50;;;5.30;99.90;;;;;;5014771;28;20503;-87
2023/04/07 06:50:13;;;;;;;12.63;7.80;;;5.40;99.90;;;;;;5018273;28;20582;-92
2023/04/07 06:52:39;;;;;;;15.00;8.90;;;5.50;99.90;;;;;;4999887;28;20524;-93
2023/04/07 06:55:07;;;;;;;11.93;7.83;;;5.60;99.90;;;;;;5000120;28;20049;-94
2023/04/07 06:57:43;;;;;;;13.87;7.50;;;5.70;99.90;;;;;;5001335;28;20322;-91
2023/04/07 07:00:34;;;;;;;10.20;7.20;;;5.80;99.90;;;;;;5000678;28;20052;-94
2023/04/07 07:03:04;;;;;;;11.23;7.47;;;5.90;99.90;;;;;;5003448;28;20112;-93
2023/04/07 07:05:30;;;;;;;12.47;7.70;;;6.00;99.90;;;;;;5000361;28;20065;-92
2023/04/07 07:07:56;;;;;;;11.03;7.47;;;6.10;99.90;;;;;;5001161;28;20068;-92
2023/04/07 07:10:32;;;;;;;11.60;8.20;;;6.30;99.90;;;;;;5020803;28;20409;-95
2023/04/07 07:13:10;;;;;;;10.07;7.20;;;6.30;99.90;;;;;;5005479;28;20034;-93
2023/04/07 07:15:41;;;;;;;9.20;6.67;;;6.40;99.90;;;;;;5002705;28;20375;-92
2023/04/07 07:18:15;;;;;;;9.90;7.30;;;6.50;99.90;;;;;;5003721;28;20468;-93
2023/04/07 07:20:41;;;;;;;10.40;6.93;;;6.50;99.90;;;;;;5018622;28;20447;-89
2023/04/07 07:23:10;;;;;;;9.80;7.00;;;6.60;99.90;;;;;;5017805;28;20030;-89
2023/04/07 07:25:42;;;;;;;10.67;8.30;;;6.60;99.90;;;;;;5017663;28;20487;-89
2023/04/07 07:28:10;;;;;;;11.03;7.40;;;6.70;99.90;;;;;;4999804;28;20325;-89
2023/04/07 07:30:40;;;;;;;12.70;7.50;;;6.80;99.90;;;;;;5021364;28;20352;-93
2023/04/07 07:33:21;;;;;;;10.50;7.03;;;6.80;99.90;;;;;;5007914;28;20018;-96
2023/04/07 07:35:52;;;;;;;10.80;7.00;;;6.90;99.90;;;;;;5006237;28;20033;-94
2023/04/07 07:38:30;;;;;;;13.33;7.20;;;6.90;99.90;;;;;;5008393;28;20406;-96
2023/04/07 07:41:11;;;;;;;9.10;6.63;;;6.90;99.90;;;;;;5026685;28;20029;-95
2023/04/07 07:44:10;;;;;;;11.83;7.30;;;6.90;99.90;;;;;;5005734;28;20473;-91
2023/04/07 07:46:44;;;;;;;8.70;6.27;;;6.80;99.90;;;;;;5002295;28;20046;-94
2023/04/07 07:49:12;;;;;;;8.53;6.67;;;6.90;99.90;;;;;;5021048;28;20453;-90
2023/04/07 07:51:38;;;;;;;11.07;7.10;;;6.90;99.90;;;;;;5002221;28;20060;-95
2023/04/07 07:54:04;;;;;;;11.03;7.50;;;7.00;99.90;;;;;;5006400;28;20400;-95
2023/04/07 07:56:31;;;;;;;10.20;6.80;;;7.00;99.90;;;;;;5005455;28;20078;-95
2023/04/07 07:58:58;;;;;;;8.30;6.83;;;6.90;99.90;;;;;;5022194;28;20460;-94
2023/04/07 08:01:28;;;;;;;9.97;6.93;;;7.00;99.90;;;;;;5020451;28;20353;-94
2023/04/07 08:03:58;;;;;;;8.03;6.37;;;7.10;99.90;;;;;;5003457;28;20518;-93
2023/04/07 08:06:25;;;;;;;10.93;7.20;;;7.10;99.90;;;;;;5020484;28;20532;-93
2023/04/07 08:08:52;;;;;;;13.10;8.10;;;7.20;99.90;;;;;;5004546;28;20329;-93
2023/04/07 08:11:17;;;;;;;10.27;6.77;;;7.30;99.90;;;;;;5020000;28;20057;-94
2023/04/07 08:13:45;;;;;;;11.07;6.87;;;7.40;99.90;;;;;;5003330;28;20034;-93
2023/04/07 08:19:41;;;;;;;13.00;7.10;;;7.50;99.90;;;;;;5009490;28;20061;-95
2023/04/07 08:22:07;;;;;;;10.07;7.13;;;7.70;99.90;;;;;;4988470;28;20037;-91
2023/04/07 08:24:33;;;;;;;12.03;7.90;;;7.80;99.90;;;;;;4979359;28;20034;-89
2023/04/07 08:27:00;;;;;;;10.17;6.60;;;8.00;99.90;;;;;;4994102;28;20101;-89
2023/04/07 08:29:26;;;;;;;9.53;6.60;;;8.20;99.90;;;;;;4994099;28;20438;-90
2023/04/07 08:31:52;;;;;;;10.40;6.80;;;8.30;99.90;;;;;;4992513;28;20539;-89
2023/04/07 08:34:19;;;;;;;10.60;6.90;;;8.50;99.90;;;;;;4992999;28;20185;-88
2023/04/07 08:36:46;;;;;;;11.37;6.27;;;8.70;99.90;;;;;;4993335;28;20473;-88
2023/04/07 08:39:11;;;;;;;10.87;7.17;;;8.80;99.90;;;;;;4993267;28;20788;-89
2023/04/07 08:41:39;;;;;;;8.33;6.27;;;9.00;99.90;;;;;;4993150;28;20026;-88
2023/04/07 08:44:10;;;;;;;8.37;6.40;;;9.00;99.90;;;;;;4994494;28;20449;-89
2023/04/07 08:46:39;;;;;;;8.20;6.20;;;9.00;99.90;;;;;;4994875;28;20528;-89
2023/04/07 08:49:09;;;;;;;8.40;6.33;;;9.10;99.90;;;;;;4994556;28;20505;-89
2023/04/07 08:51:37;;;;;;;8.10;6.23;;;9.20;99.90;;;;;;4994736;28;20496;-88
2023/04/07 08:54:10;;;;;;;11.23;6.50;;;9.30;99.90;;;;;;4995144;28;20441;-88
2023/04/07 08:56:40;;;;;;;9.37;7.23;;;9.30;99.90;;;;;;5007484;28;20465;-88
2023/04/07 08:59:09;;;;;;;8.37;6.93;;;9.40;99.90;;;;;;5016427;28;20487;-89
2023/04/07 09:01:36;;;;;;;9.43;6.43;;;9.50;99.90;;;;;;4998456;28;20457;-89
2023/04/07 09:04:03;;;;;;;8.23;6.10;;;9.60;99.90;;;;;;5017760;28;20432;-90
2023/04/07 09:06:32;;;;;;;8.77;5.73;;;9.80;99.90;;;;;;5018388;28;20500;-79
2023/04/07 09:08:59;;;;;;;10.17;6.63;;;9.90;99.90;;;;;;5015598;28;20428;-88
2023/04/07 09:11:29;;;;;;;8.00;6.07;;;10.00;99.90;;;;;;5015745;28;20491;-89
2023/04/07 09:13:55;;;;;;;8.07;5.67;;;10.10;99.90;;;;;;5014884;28;20482;-89
2023/04/07 09:16:24;;;;;;;8.57;6.47;;;10.30;99.90;;;;;;5013696;28;20369;-89
2023/04/07 09:18:52;;;;;;;9.47;6.17;;;10.60;99.90;;;;;;5015111;28;20026;-88
2023/04/07 09:21:18;;;;;;;10.83;8.53;;;10.80;99.90;;;;;;5014631;28;20500;-95
2023/04/07 09:23:46;;;;;;;8.70;6.17;;;10.90;99.90;;;;;;5002363;28;20405;-94
2023/04/07 09:26:20;;;;;;;7.43;5.73;;;11.10;99.90;;;;;;5020716;28;20429;-94
2023/04/07 09:28:51;;;;;;;9.70;6.70;;;11.00;99.90;;;;;;5019457;28;20022;-91
2023/04/07 09:31:19;;;;;;;8.43;6.40;;;11.20;99.90;;;;;;5002325;28;20097;-93
2023/04/07 09:33:47;;;;;;;7.83;6.07;;;11.20;99.90;;;;;;5019946;28;20427;-94
2023/04/07 09:36:12;;;;;;;8.90;6.23;;;11.20;99.90;;;;;;5019806;28;20360;-92
2023/04/07 09:38:40;;;;;;;8.60;6.53;;;11.50;99.90;;;;;;5001725;28;20042;-93
2023/04/07 09:41:07;;;;;;;8.15;6.38;;;11.60;99.90;;;;;;5001500;28;20068;-94
2023/04/07 09:43:36;;;;;;;7.95;5.93;;;11.80;99.90;;;;;;5001706;28;20520;-94
2023/04/07 09:46:10;;;;;;;8.47;6.70;;;12.00;99.90;;;;;;5001818;28;20429;-93
2023/04/07 09:48:43;;;;;;;7.65;6.00;;;12.20;99.90;;;;;;5002308;28;20018;-92
2023/04/07 09:51:17;;;;;;;8.27;5.70;;;12.20;99.90;;;;;;5001894;28;20033;-93
2023/04/07 09:53:48;;;;;;;9.20;5.93;;;12.10;99.90;;;;;;5001385;28;20464;-94
2023/04/07 09:56:17;;;;;;;7.53;5.72;;;12.20;99.90;;;;;;5001756;28;20460;-95
2023/04/07 09:58:45;;;;;;;10.07;6.65;;;12.30;99.90;;;;;;5002269;28;20461;-93
2023/04/07 10:01:13;;;;;;;9.27;7.38;;;12.30;99.90;;;;;;5002214;28;20429;-93
2023/04/07 10:03:40;;;;;;;8.52;6.70;;;12.50;99.90;;;;;;5021356;28;20457;-93
2023/04/07 10:06:12;;;;;;;8.30;6.03;;;12.60;99.90;;;;;;4998551;28;20419;-94
2023/04/07 10:08:41;;;;;;;11.23;7.93;;;12.80;99.90;;;;;;4998788;28;20357;-93
2023/04/07 10:11:09;;;;;;;14.50;9.32;;;12.90;99.90;;;;;;4996593;28;20426;-85
2023/04/07 10:13:36;;;;;;;12.38;8.88;;;12.80;99.90;;;;;;4993399;28;20594;-85
2023/04/07 10:16:04;;;;;;;8.68;5.63;;;12.50;99.90;;;;;;4991862;28;20457;-85
2023/04/07 10:18:32;;;;;;;7.63;6.00;;;12.10;99.90;;;;;;4993444;28;20476;-84
2023/04/07 10:21:06;;;;;;;8.55;6.43;;;11.80;99.90;;;;;;4993113;28;20592;-84
2023/04/07 10:23:52;;;;;;;9.50;6.82;;;11.50;99.90;;;;;;4993020;28;20527;-84
2023/04/07 10:26:20;;;;;;;;;;;11.30;99.90;;;;;;4993387;28;20592;-83
2023/04/07 10:28:52;;;;;;;8.95;6.30;;;11.10;99.90;;;;;;4993076;28;20337;-84
2023/04/07 10:31:20;;;;;;;19.27;12.88;;;11.30;99.90;;;;;;4992739;28;20457;-84
2023/04/07 10:33:53;;;;;;;11.57;7.90;;;11.30;99.90;;;;;;4992693;28;20403;-84
2023/04/07 10:36:22;;;;;;;10.65;7.30;;;11.50;99.90;;;;;;4992752;28;20550;-85
2023/04/07 10:39:06;;;;;;;8.57;5.55;;;11.80;99.90;;;;;;4992597;28;20588;-84
2023/04/07 10:41:35;;;;;;;7.47;5.38;;;12.40;99.90;;;;;;4992556;28;20418;-85
2023/04/07 10:44:02;;;;;;;8.75;5.60;;;12.80;99.90;;;;;;4992810;28;20449;-86
2023/04/07 10:46:50;;;;;;;7.30;5.43;;;13.10;99.90;;;;;;4992479;28;20534;-86
2023/04/07 10:49:19;;;;;;;7.90;6.85;;;13.30;99.90;;;;;;5007184;28;20480;-95
2023/04/07 10:52:17;;;;;;;11.77;5.70;;;13.20;99.90;;;;;;5004292;28;20410;-96
2023/04/07 10:54:43;;;;;;;7.10;5.18;;;13.00;99.90;;;;;;5003290;28;20464;-96
2023/04/07 10:57:16;;;;;;;9.50;5.97;;;12.90;99.90;;;;;;5009845;28;20026;-96
2023/04/07 11:00:11;;;;;;;9.82;6.20;;;12.90;99.90;;;;;;5007849;28;20029;-96
2023/04/07 11:02:51;;;;;;;8.35;5.80;;;13.20;99.90;;;;;;5088200;23;20469;-95
2023/04/07 11:05:41;;;;;;;10.82;5.35;;;13.50;99.90;;;;;;5022973;28;20454;-95
2023/04/07 11:08:12;;;;;;;8.93;5.78;;;13.70;99.90;;;;;;5023448;28;20021;-94
2023/04/07 11:10:51;;;;;;;7.50;5.80;;;14.00;99.90;;;;;;5005037;28;20026;-93
2023/04/07 11:13:53;;;;;;;7.85;5.80;;;14.20;99.90;;;;;;5008287;28;20029;-96
2023/04/07 11:29:42;;;;;;;6.93;5.50;;;13.60;99.90;;;;;;5030360;23;20050;-95
2023/04/07 11:32:13;;;;;;;10.10;6.40;;;13.40;99.90;;;;;;4985214;28;20149;-95
2023/04/07 11:34:43;;;;;;;8.05;5.78;;;13.50;99.90;;;;;;4968200;28;20401;-93
2023/04/07 11:37:22;;;;;;;6.88;5.55;;;13.90;99.90;;;;;;4961429;28;20031;-92
2023/04/07 11:40:05;;;;;;;8.32;5.57;;;14.30;99.90;;;;;;4990424;23;20011;-94
2023/04/07 11:54:45;;;;;;;7.22;5.40;;;14.00;99.90;;;;;;5077092;23;20041;-96
2023/04/07 12:07:33;;;;;;;7.65;5.68;;;13.90;99.90;;;;;;2551111;23;20052;-88
2023/04/07 12:10:25;;;;;;;9.15;5.82;;;13.80;99.90;;;;;;5021792;28;20420;-90
2023/04/07 12:12:51;;;;;;;8.15;5.40;;;13.60;99.90;;;;;;5002488;28;20029;-92
2023/04/07 12:15:25;;;;;;;7.00;5.00;;;13.50;99.90;;;;;;5004679;28;20026;-91
2023/04/07 12:17:51;;;;;;;10.20;5.93;;;13.60;99.90;;;;;;5003428;28;20057;-92
2023/04/07 12:20:22;;;;;;;8.40;6.25;;;13.70;99.90;;;;;;5003625;28;20030;-90
2023/04/07 12:23:08;;;;;;;8.60;5.55;;;13.60;99.90;;;;;;5003315;28;20093;-90
2023/04/07 12:25:35;;;;;;;6.85;5.32;;;13.40;99.90;;;;;;5004109;28;20475;-90
2023/04/07 12:28:06;;;;;;;8.30;6.15;;;13.20;99.90;;;;;;5002279;28;20056;-90
2023/04/07 12:30:40;;;;;;;7.10;5.65;;;13.10;99.90;;;;;;5002472;28;20414;-88
2023/04/07 12:33:06;;;;;;;8.65;6.28;;;13.00;99.90;;;;;;4998075;28;20406;-91
2023/04/07 12:35:32;;;;;;;8.32;6.65;;;12.90;99.90;;;;;;5015232;28;20014;-88
2023/04/07 12:37:58;;;;;;;9.60;6.18;;;12.80;99.90;;;;;;5018794;28;20101;-90
2023/04/07 12:40:24;;;;;;;9.13;6.47;;;12.70;99.90;;;;;;5001279;28;20439;-90
2023/04/07 12:46:11;;;;;;;9.68;6.35;;;12.50;99.90;;;;;;5022763;23;20069;-79
2023/04/07 12:48:37;;;;;;;8.27;6.28;;;12.40;99.90;;;;;;4977495;28;20050;-79
2023/04/07 12:51:03;;;;;;;7.60;6.00;;;12.30;99.90;;;;;;4977146;28;20083;-77
2023/04/07 12:53:28;;;;;;;8.68;5.85;;;12.40;99.90;;;;;;4973953;28;20492;-79
2023/04/07 13:11:16;;;;;;;7.03;5.75;;;12.50;99.90;;;;;;5197813;23;20056;-82
2023/04/07 13:13:42;;;;;;;8.43;6.20;;;12.50;99.90;;;;;;5051974;28;20037;-74
2023/04/07 13:16:08;;;;;;;7.93;6.90;;;12.60;99.90;;;;;;5049581;28;20041;-75
2023/04/07 13:18:33;;;;;;;7.85;5.95;;;12.70;99.90;;;;;;5049597;28;20032;-76
2023/04/07 13:20:59;;;;;;;9.00;6.35;;;12.60;99.90;;;;;;5047185;28;20166;-75
2023/04/07 13:23:24;;;;;;;7.55;6.22;;;12.60;99.90;;;;;;5045081;28;20063;-76
2023/04/07 13:25:52;;;;;;;7.95;6.35;;;12.50;99.90;;;;;;5045391;28;20055;-76
2023/04/07 13:28:19;;;;;;;9.25;6.20;;;12.40;99.90;;;;;;5046415;28;20041;-76
2023/04/07 13:30:45;;;;;;;7.78;5.93;;;12.40;99.90;;;;;;5045002;28;20071;-75
2023/04/07 13:33:11;;;;;;;8.02;5.13;;;12.50;99.90;;;;;;5050548;28;20115;-77
2023/04/07 13:35:36;;;;;;;7.72;5.63;;;12.50;99.90;;;;;;5053852;28;20056;-77
2023/04/07 13:38:03;;;;;;;6.88;5.28;;;12.50;99.90;;;;;;5052706;28;20043;-77
2023/04/07 13:40:28;;;;;;;6.18;5.13;;;12.50;99.90;;;;;;5053364;28;20029;-77
2023/04/07 13:42:55;;;;;;;7.35;5.20;;;12.40;99.90;;;;;;5052465;28;20486;-78
2023/04/07 13:45:21;;;;;;;7.85;5.10;;;12.40;99.90;;;;;;5053430;28;20024;-77
2023/04/07 13:47:46;;;;;;;8.80;5.18;;;12.40;99.90;;;;;;5053237;28;20024;-76
2023/04/07 13:50:12;;;;;;;6.82;5.50;;;12.40;99.90;;;;;;5046720;28;20071;-76
2023/04/07 13:52:37;;;;;;;9.27;5.78;;;12.50;99.90;;;;;;5048460;28;20060;-76
2023/04/07 13:55:04;;;;;;;7.22;4.95;;;12.50;99.90;;;;;;5048264;28;20048;-75
2023/04/07 13:57:30;;;;;;;6.97;4.95;;;12.40;99.90;;;;;;5048729;28;20043;-76
2023/04/07 13:59:56;;;;;;;6.47;4.85;;;12.40;99.90;;;;;;5048746;28;20033;-76
2023/04/07 14:02:23;;;;;;;9.18;5.25;;;12.40;99.90;;;;;;5047797;28;20033;-76
2023/04/07 14:04:48;;;;;;;6.63;5.13;;;12.40;99.90;;;;;;5048873;28;20033;-76